Time;durP1;ratioP1;P1;durP2;ratioP2;P2;SDS_P1;SDS_P2;PMS_P1;PMS_P2;Temp;Humidity;BMP_temperature;BMP_pressure;BME280_temperature;BME280_humidity;BME280_pressure;Samples;Min_cycle;Max_cycle;Signal;HPM_P1;HPM_P2
2021/09/13 00:00:35;;;;;;;0.70;0.50;;;16.10;99.90;;;;;;6128031;23;20397;-89
2021/09/13 00:03:03;;;;;;;0.80;0.73;;;16.00;99.90;;;;;;6128353;23;20905;-89
2021/09/13 00:05:30;;;;;;;0.30;0.30;;;16.00;99.90;;;;;;6128077;23;20402;-86
2021/09/13 00:07:56;;;;;;;0.80;0.80;;;16.00;99.90;;;;;;6127791;23;20716;-86
2021/09/13 00:10:24;;;;;;;0.80;0.60;;;16.00;99.90;;;;;;6127435;23;20926;-86
2021/09/13 00:12:51;;;;;;;1.53;1.13;;;16.00;99.90;;;;;;6127605;23;20401;-86
2021/09/13 00:15:19;;;;;;;0.97;0.60;;;15.90;99.90;;;;;;6127693;23;20443;-86
2021/09/13 00:17:46;;;;;;;1.37;0.53;;;15.90;99.90;;;;;;6127985;23;20420;-86
2021/09/13 00:20:14;;;;;;;0.80;0.80;;;15.90;99.90;;;;;;6127466;23;20424;-87
2021/09/13 00:22:41;;;;;;;1.53;1.03;;;15.90;99.90;;;;;;6127812;23;20419;-86
2021/09/13 00:25:08;;;;;;;0.63;0.63;;;15.90;99.90;;;;;;6127823;23;20408;-89
2021/09/13 00:27:35;;;;;;;1.00;0.90;;;16.00;99.90;;;;;;6128073;23;20393;-89
2021/09/13 00:30:02;;;;;;;0.60;0.60;;;16.00;99.90;;;;;;6127442;23;20437;-89
2021/09/13 00:32:29;;;;;;;1.03;0.97;;;16.00;99.90;;;;;;6127318;23;20398;-85
2021/09/13 00:34:56;;;;;;;3.73;0.80;;;16.10;99.90;;;;;;6127066;23;20481;-86
2021/09/13 00:37:24;;;;;;;0.60;0.60;;;16.10;99.90;;;;;;6127255;23;20424;-86
2021/09/13 00:39:51;;;;;;;0.83;0.80;;;16.10;99.90;;;;;;6127161;23;20941;-86
2021/09/13 00:42:18;;;;;;;0.80;0.70;;;16.10;99.90;;;;;;6126992;23;20393;-86
2021/09/13 00:44:44;;;;;;;0.73;0.63;;;16.10;99.90;;;;;;6127035;23;20409;-86
2021/09/13 00:47:11;;;;;;;0.93;0.80;;;16.10;99.90;;;;;;6126482;23;20910;-85
2021/09/13 00:49:38;;;;;;;0.70;0.60;;;16.10;99.90;;;;;;6126710;23;20463;-86
2021/09/13 00:52:06;;;;;;;0.63;0.63;;;16.10;99.90;;;;;;6127178;23;20373;-86
2021/09/13 00:54:34;;;;;;;1.20;0.67;;;16.10;99.90;;;;;;6126932;23;20432;-86
2021/09/13 00:57:01;;;;;;;0.47;0.47;;;16.10;99.90;;;;;;6126971;23;20441;-86
2021/09/13 00:59:28;;;;;;;0.80;0.60;;;16.10;99.90;;;;;;6126822;23;20447;-86
2021/09/13 01:01:54;;;;;;;0.70;0.67;;;16.10;99.90;;;;;;6126928;23;20417;-87
2021/09/13 01:04:21;;;;;;;0.70;0.60;;;16.10;99.90;;;;;;6127434;23;20420;-87
2021/09/13 01:06:48;;;;;;;0.73;0.70;;;16.00;99.90;;;;;;6127389;23;20408;-86
2021/09/13 01:09:15;;;;;;;0.70;0.67;;;16.00;99.90;;;;;;6127757;23;20441;-87
2021/09/13 01:11:44;;;;;;;0.97;0.73;;;16.00;99.90;;;;;;6127393;23;20913;-87
2021/09/13 01:14:10;;;;;;;1.17;0.63;;;15.90;99.90;;;;;;6127211;23;20397;-87
2021/09/13 01:16:37;;;;;;;1.57;0.80;;;15.90;99.90;;;;;;6127163;23;20433;-87
2021/09/13 01:19:04;;;;;;;0.70;0.70;;;15.90;99.90;;;;;;6127060;23;20952;-86
2021/09/13 01:21:32;;;;;;;0.97;0.77;;;15.90;99.90;;;;;;6127028;23;20729;-87
2021/09/13 01:24:00;;;;;;;0.70;0.60;;;16.00;99.90;;;;;;6127393;23;20409;-87
2021/09/13 01:26:27;;;;;;;1.10;0.77;;;16.00;99.90;;;;;;6127195;23;20401;-87
2021/09/13 01:28:53;;;;;;;0.77;0.53;;;16.00;99.90;;;;;;6127522;23;20417;-87
2021/09/13 01:31:20;;;;;;;1.27;0.60;;;16.00;99.90;;;;;;6152379;23;20420;-87
2021/09/13 01:34:01;;;;;;;0.80;0.80;;;16.00;99.90;;;;;;5116824;27;20534;-86
2021/09/13 01:36:28;;;;;;;0.93;0.70;;;16.00;99.90;;;;;;5115125;28;20445;-86
2021/09/13 01:38:55;;;;;;;0.67;0.53;;;16.00;99.90;;;;;;5113112;28;20459;-85
2021/09/13 01:41:22;;;;;;;0.63;0.63;;;15.90;99.90;;;;;;5111556;28;20973;-85
2021/09/13 01:43:48;;;;;;;0.70;0.50;;;15.90;99.90;;;;;;5111307;28;20439;-85
2021/09/13 01:46:15;;;;;;;0.40;0.40;;;15.90;99.90;;;;;;5111207;28;20454;-85
2021/09/13 01:48:42;;;;;;;0.60;0.60;;;15.80;99.90;;;;;;5111170;28;20482;-85
2021/09/13 01:51:10;;;;;;;1.10;0.63;;;15.80;99.90;;;;;;5111210;28;20439;-85
2021/09/13 01:53:37;;;;;;;0.90;0.70;;;15.80;99.90;;;;;;5111003;28;20483;-86
2021/09/13 01:56:04;;;;;;;0.80;0.80;;;15.70;99.90;;;;;;5111656;28;20435;-86
2021/09/13 01:58:31;;;;;;;0.70;0.70;;;15.70;99.90;;;;;;5111551;28;20459;-87
2021/09/13 02:00:57;;;;;;;1.60;0.83;;;15.70;99.90;;;;;;5111204;28;20447;-87
2021/09/13 02:03:24;;;;;;;0.80;0.67;;;15.70;99.90;;;;;;5111306;28;20447;-87
2021/09/13 02:05:51;;;;;;;0.57;0.50;;;15.70;99.90;;;;;;5111328;28;20439;-87
2021/09/13 02:08:19;;;;;;;0.53;0.53;;;15.70;99.90;;;;;;5111097;28;20455;-87
2021/09/13 02:10:46;;;;;;;3.57;0.70;;;15.60;99.90;;;;;;5111087;28;20443;-87
2021/09/13 02:13:12;;;;;;;1.80;0.73;;;15.60;99.90;;;;;;5111031;28;20486;-86
2021/09/13 02:15:39;;;;;;;0.87;0.80;;;15.60;99.90;;;;;;5110810;28;20939;-87
2021/09/13 02:18:06;;;;;;;0.50;0.50;;;15.60;99.90;;;;;;5110976;28;20446;-86
2021/09/13 02:20:33;;;;;;;0.60;0.60;;;15.60;99.90;;;;;;5111381;28;20804;-87
2021/09/13 02:23:00;;;;;;;0.50;0.50;;;15.70;99.90;;;;;;5111953;28;20450;-87
2021/09/13 02:25:28;;;;;;;0.60;0.60;;;15.70;99.90;;;;;;5111098;28;20431;-87
2021/09/13 02:27:55;;;;;;;0.40;0.40;;;15.60;99.90;;;;;;5111014;28;20446;-87
2021/09/13 02:30:22;;;;;;;1.23;1.23;;;15.70;99.90;;;;;;5110797;28;20447;-86
2021/09/13 02:32:48;;;;;;;0.60;0.50;;;15.60;99.90;;;;;;5110104;28;20491;-84
2021/09/13 02:35:15;;;;;;;0.60;0.60;;;15.70;99.90;;;;;;5110265;28;20451;-85
2021/09/13 02:37:42;;;;;;;0.60;0.60;;;15.60;99.90;;;;;;5110323;28;20447;-85
2021/09/13 02:40:09;;;;;;;0.70;0.60;;;15.70;99.90;;;;;;5110208;28;20471;-85
2021/09/13 02:42:38;;;;;;;1.17;0.93;;;15.60;99.90;;;;;;5110294;28;20450;-85
2021/09/13 02:45:05;;;;;;;1.17;0.80;;;15.70;99.90;;;;;;5098239;28;20479;-85
2021/09/13 02:47:32;;;;;;;0.77;0.50;;;15.70;99.90;;;;;;5096654;28;20455;-85
2021/09/13 02:49:59;;;;;;;0.67;0.43;;;15.70;99.90;;;;;;5096149;28;20971;-85
2021/09/13 02:52:26;;;;;;;2.00;1.00;;;15.70;99.90;;;;;;5096456;28;20859;-85
2021/09/13 02:54:53;;;;;;;1.27;0.70;;;15.80;99.90;;;;;;5096096;28;20518;-84
2021/09/13 02:57:20;;;;;;;0.70;0.50;;;15.70;99.90;;;;;;5096049;28;20931;-85
2021/09/13 02:59:48;;;;;;;1.57;0.70;;;15.70;99.90;;;;;;5096360;28;20471;-85
2021/09/13 03:02:15;;;;;;;0.90;0.60;;;15.70;99.90;;;;;;5096534;28;20436;-85
2021/09/13 03:04:42;;;;;;;0.83;0.70;;;15.70;99.90;;;;;;5099188;28;20447;-85
2021/09/13 03:07:08;;;;;;;2.00;0.63;;;15.60;99.90;;;;;;5100655;28;20824;-85
2021/09/13 03:09:35;;;;;;;2.47;0.53;;;15.50;99.90;;;;;;5096080;28;20828;-85
2021/09/13 03:12:04;;;;;;;1.33;0.60;;;15.50;99.90;;;;;;5095728;28;20455;-85
2021/09/13 03:14:30;;;;;;;0.80;0.60;;;15.40;99.90;;;;;;5095907;28;20444;-85
2021/09/13 03:16:59;;;;;;;1.53;0.63;;;15.40;99.90;;;;;;5095984;28;20447;-85
2021/09/13 03:19:26;;;;;;;0.60;0.60;;;15.40;99.90;;;;;;5095875;28;20476;-85
2021/09/13 03:21:53;;;;;;;0.50;0.50;;;15.40;99.90;;;;;;5095959;28;20435;-86
2021/09/13 03:24:20;;;;;;;0.73;0.70;;;15.40;99.90;;;;;;5096133;28;20444;-86
2021/09/13 03:26:47;;;;;;;0.93;0.60;;;15.40;99.90;;;;;;5095911;28;20432;-86
2021/09/13 03:29:14;;;;;;;0.90;0.70;;;15.40;99.90;;;;;;5096084;28;20460;-86
2021/09/13 03:31:41;;;;;;;1.30;0.53;;;15.40;99.90;;;;;;5095975;28;20439;-87
2021/09/13 03:34:09;;;;;;;0.50;0.50;;;15.40;99.90;;;;;;5096809;28;20476;-87
2021/09/13 03:36:38;;;;;;;0.60;0.60;;;15.30;99.90;;;;;;5114434;28;20475;-85
2021/09/13 03:39:06;;;;;;;0.60;0.60;;;15.30;99.90;;;;;;5102055;28;21001;-86
2021/09/13 03:41:33;;;;;;;3.50;0.83;;;15.30;99.90;;;;;;5100680;28;20517;-86
2021/09/13 03:43:59;;;;;;;0.80;0.70;;;15.30;99.90;;;;;;5097350;28;20456;-86
2021/09/13 03:46:26;;;;;;;1.37;0.70;;;15.30;99.90;;;;;;5096689;28;20450;-86
2021/09/13 03:48:53;;;;;;;0.73;0.60;;;15.30;99.90;;;;;;5095476;28;21002;-86
2021/09/13 03:51:21;;;;;;;1.07;0.70;;;15.20;99.90;;;;;;5095612;28;20950;-87
2021/09/13 03:53:48;;;;;;;0.60;0.60;;;15.20;99.90;;;;;;5095210;28;20464;-86
2021/09/13 03:56:15;;;;;;;0.40;0.40;;;15.20;99.90;;;;;;5094484;28;20451;-86
2021/09/13 03:58:41;;;;;;;0.50;0.50;;;15.20;99.90;;;;;;5095387;28;20471;-86
2021/09/13 04:01:08;;;;;;;1.23;0.50;;;15.20;99.90;;;;;;5095448;28;20444;-86
2021/09/13 04:03:42;;;;;;;0.93;0.70;;;15.20;99.90;;;;;;5095245;28;20471;-86
2021/09/13 04:06:17;;;;;;;0.93;0.60;;;15.10;99.90;;;;;;5094929;28;20440;-86
2021/09/13 04:11:35;;;;;;;0.97;0.70;;;15.10;99.90;;;;;;5061492;28;20515;-86
2021/09/13 04:14:01;;;;;;;0.40;0.40;;;15.10;99.90;;;;;;5095139;28;20493;-86
2021/09/13 04:16:28;;;;;;;1.60;0.83;;;15.10;99.90;;;;;;5094820;28;20448;-86
2021/09/13 04:18:55;;;;;;;1.70;1.10;;;15.10;99.90;;;;;;5094973;28;20555;-86
2021/09/13 04:21:22;;;;;;;0.83;0.50;;;15.00;99.90;;;;;;5094957;28;20447;-86
2021/09/13 04:23:50;;;;;;;2.50;0.50;;;15.00;99.90;;;;;;5094638;28;20440;-86
2021/09/13 04:26:17;;;;;;;3.40;0.73;;;15.00;99.90;;;;;;5094888;28;20452;-85
2021/09/13 04:28:43;;;;;;;0.80;0.80;;;15.00;99.90;;;;;;5094736;28;20468;-86
2021/09/13 04:31:10;;;;;;;1.17;0.70;;;15.00;99.90;;;;;;5094718;28;20444;-86
2021/09/13 04:33:37;;;;;;;0.57;0.50;;;15.00;99.90;;;;;;5094271;28;20496;-86
2021/09/13 04:36:04;;;;;;;0.87;0.60;;;14.90;99.90;;;;;;5095064;28;20452;-86
2021/09/13 04:38:30;;;;;;;0.63;0.57;;;14.90;99.90;;;;;;5094309;28;20959;-85
2021/09/13 04:40:59;;;;;;;0.83;0.80;;;14.90;99.90;;;;;;5094282;28;20939;-85
2021/09/13 04:43:25;;;;;;;0.70;0.70;;;14.90;99.90;;;;;;5094472;28;20444;-86
2021/09/13 04:45:52;;;;;;;1.20;0.70;;;14.80;99.90;;;;;;5094269;28;20442;-86
2021/09/13 04:48:19;;;;;;;0.80;0.80;;;14.80;99.90;;;;;;5094242;28;20467;-86
2021/09/13 04:50:46;;;;;;;1.50;1.10;;;14.80;99.90;;;;;;5094660;28;20456;-86
2021/09/13 04:53:12;;;;;;;0.83;0.67;;;14.80;99.90;;;;;;5094446;28;20475;-86
2021/09/13 04:55:39;;;;;;;1.80;0.90;;;14.80;99.90;;;;;;5094201;28;20447;-86
2021/09/13 04:58:07;;;;;;;0.80;0.60;;;14.80;99.90;;;;;;5094273;28;20443;-86
2021/09/13 05:00:34;;;;;;;0.90;0.70;;;14.80;99.90;;;;;;5094188;28;20450;-86
2021/09/13 05:03:01;;;;;;;0.80;0.60;;;14.70;99.90;;;;;;5094251;28;20444;-86
2021/09/13 05:05:27;;;;;;;0.60;0.60;;;14.70;99.90;;;;;;5093944;28;20432;-87
2021/09/13 05:07:54;;;;;;;0.70;0.70;;;14.70;99.90;;;;;;5094270;28;20460;-87
2021/09/13 05:10:21;;;;;;;2.57;0.97;;;14.70;99.90;;;;;;5094188;28;20475;-86
2021/09/13 05:12:48;;;;;;;0.60;0.60;;;14.70;99.90;;;;;;5094219;28;20428;-87
2021/09/13 05:15:16;;;;;;;1.33;0.87;;;14.70;99.90;;;;;;5094400;28;20432;-86
2021/09/13 05:17:43;;;;;;;0.63;0.50;;;14.70;99.90;;;;;;5094363;28;20452;-86
2021/09/13 05:20:11;;;;;;;0.80;0.70;;;14.70;99.90;;;;;;5094227;28;20467;-87
2021/09/13 05:22:38;;;;;;;0.83;0.67;;;14.60;99.90;;;;;;5094168;28;20931;-87
2021/09/13 05:25:06;;;;;;;0.83;0.70;;;14.60;99.90;;;;;;5094509;28;20945;-87
2021/09/13 05:27:33;;;;;;;0.60;0.47;;;14.60;99.90;;;;;;5094551;28;20471;-87
2021/09/13 05:30:00;;;;;;;0.90;0.80;;;14.60;99.90;;;;;;5094088;28;20489;-87
2021/09/13 05:32:28;;;;;;;0.70;0.70;;;14.60;99.90;;;;;;5094131;28;20474;-86
2021/09/13 05:34:55;;;;;;;0.93;0.80;;;14.50;99.90;;;;;;5093806;28;20475;-86
2021/09/13 05:37:22;;;;;;;0.70;0.60;;;14.60;99.90;;;;;;5096571;28;20448;-86
2021/09/13 05:39:49;;;;;;;1.27;0.70;;;14.60;99.90;;;;;;5115809;28;20480;-87
2021/09/13 05:42:16;;;;;;;0.90;0.90;;;14.60;99.90;;;;;;5100910;28;20475;-86
2021/09/13 05:44:43;;;;;;;1.20;0.90;;;14.70;99.90;;;;;;5098799;28;20432;-87
2021/09/13 05:47:09;;;;;;;0.50;0.43;;;14.70;99.90;;;;;;5098608;28;20527;-86
2021/09/13 05:49:38;;;;;;;1.00;0.70;;;14.70;99.90;;;;;;5097739;28;20456;-86
2021/09/13 05:52:05;;;;;;;1.20;0.80;;;14.80;99.90;;;;;;5096693;28;20439;-86
2021/09/13 05:54:31;;;;;;;0.47;0.47;;;14.80;99.90;;;;;;5094697;28;20558;-86
2021/09/13 05:56:58;;;;;;;0.60;0.60;;;14.80;99.90;;;;;;5093906;28;20443;-86
2021/09/13 05:59:26;;;;;;;1.00;0.70;;;14.90;99.90;;;;;;5093563;28;20482;-86
2021/09/13 06:01:52;;;;;;;0.60;0.60;;;15.00;99.90;;;;;;5093845;28;20946;-86
2021/09/13 06:04:19;;;;;;;0.90;0.80;;;15.00;99.90;;;;;;5094101;28;20444;-87
2021/09/13 06:06:47;;;;;;;0.97;0.70;;;15.10;99.90;;;;;;5093937;28;20436;-86
2021/09/13 06:09:14;;;;;;;1.70;0.80;;;15.20;99.90;;;;;;5094087;28;20477;-86
2021/09/13 06:11:41;;;;;;;1.27;0.90;;;15.30;99.90;;;;;;5093535;28;20438;-86
2021/09/13 06:14:08;;;;;;;1.13;0.73;;;15.30;99.90;;;;;;5093843;28;20486;-86
2021/09/13 06:16:35;;;;;;;0.77;0.77;;;15.40;99.90;;;;;;5093959;28;20452;-86
2021/09/13 06:19:02;;;;;;;1.57;0.97;;;15.40;99.90;;;;;;5094284;28;20823;-86
2021/09/13 06:21:28;;;;;;;0.83;0.60;;;15.50;99.90;;;;;;5097817;28;20444;-86
2021/09/13 06:23:57;;;;;;;0.70;0.60;;;15.60;99.90;;;;;;5097570;28;20527;-87
2021/09/13 06:26:23;;;;;;;1.23;0.93;;;15.70;99.90;;;;;;5097249;28;20504;-87
2021/09/13 06:28:50;;;;;;;0.70;0.60;;;15.80;99.90;;;;;;5097208;28;20486;-87
2021/09/13 06:31:17;;;;;;;0.80;0.70;;;15.80;99.90;;;;;;5097161;28;20942;-87
2021/09/13 06:33:44;;;;;;;0.83;0.80;;;16.00;99.90;;;;;;5096823;28;20483;-87
2021/09/13 06:36:10;;;;;;;2.87;0.93;;;16.00;99.90;;;;;;5097058;28;20452;-87
2021/09/13 06:38:37;;;;;;;1.40;1.30;;;16.10;99.90;;;;;;5096901;28;20950;-87
2021/09/13 06:41:06;;;;;;;1.03;0.90;;;16.10;99.90;;;;;;5097113;28;20434;-87
2021/09/13 06:43:33;;;;;;;0.80;0.80;;;16.20;99.90;;;;;;5097936;28;20486;-87
2021/09/13 06:46:10;;;;;;;0.70;0.70;;;16.30;99.90;;;;;;5096852;28;20455;-87
2021/09/13 06:48:39;;;;;;;1.03;0.87;;;16.40;99.90;;;;;;5097052;28;20561;-87
2021/09/13 06:51:06;;;;;;;1.77;1.07;;;16.40;99.90;;;;;;5097063;28;20447;-87
2021/09/13 06:53:33;;;;;;;2.07;1.10;;;16.50;99.90;;;;;;5097820;28;20467;-87
2021/09/13 06:56:01;;;;;;;2.10;0.90;;;16.60;99.90;;;;;;5097537;28;20412;-87
2021/09/13 06:58:30;;;;;;;0.60;0.60;;;16.70;99.90;;;;;;5098279;28;20472;-89
2021/09/13 07:00:57;;;;;;;1.13;1.00;;;16.80;99.90;;;;;;5098244;28;20459;-89
2021/09/13 07:03:24;;;;;;;2.00;0.70;;;16.90;99.90;;;;;;5097751;28;20444;-88
2021/09/13 07:05:51;;;;;;;5.03;0.60;;;17.00;99.90;;;;;;5098224;28;20451;-88
2021/09/13 07:08:18;;;;;;;0.87;0.63;;;17.10;99.90;;;;;;5098366;28;20474;-89
2021/09/13 07:10:46;;;;;;;0.80;0.80;;;17.20;99.90;;;;;;5097390;28;20452;-89
2021/09/13 07:13:13;;;;;;;0.70;0.57;;;17.30;99.90;;;;;;5097429;28;20458;-89
2021/09/13 07:15:41;;;;;;;1.03;0.90;;;17.50;99.90;;;;;;5097414;28;20471;-89
2021/09/13 07:18:08;;;;;;;0.60;0.60;;;17.60;99.90;;;;;;5097201;28;20454;-89
2021/09/13 07:20:35;;;;;;;0.90;0.90;;;17.70;99.90;;;;;;5098266;28;20458;-88
2021/09/13 07:23:01;;;;;;;1.70;0.93;;;17.80;99.90;;;;;;5099059;28;20456;-89
2021/09/13 07:25:28;;;;;;;1.50;0.77;;;17.90;99.90;;;;;;5098737;28;20443;-89
2021/09/13 07:28:01;;;;;;;1.53;0.70;;;18.00;99.90;;;;;;5097007;28;20443;-89
2021/09/13 07:30:28;;;;;;;2.83;1.00;;;18.00;99.90;;;;;;5099401;28;20988;-89
2021/09/13 07:32:56;;;;;;;1.17;0.70;;;18.00;99.90;;;;;;5098350;28;20582;-89
2021/09/13 07:35:23;;;;;;;0.73;0.70;;;18.10;99.90;;;;;;5098735;28;20567;-89
2021/09/13 07:37:50;;;;;;;0.90;0.77;;;18.10;99.90;;;;;;5098531;28;20452;-89
2021/09/13 07:40:21;;;;;;;2.30;0.60;;;18.20;99.90;;;;;;5097050;28;21074;-88
2021/09/13 07:45:46;;;;;;;3.23;0.87;;;18.30;99.90;;;;;;5117536;27;20542;-90
2021/09/13 07:48:13;;;;;;;0.80;0.80;;;18.50;99.90;;;;;;5135832;28;20415;-90
2021/09/13 07:50:39;;;;;;;2.57;1.13;;;18.50;99.90;;;;;;5124180;28;20530;-90
2021/09/13 07:53:06;;;;;;;0.60;0.60;;;18.60;99.90;;;;;;5120760;28;20522;-90
2021/09/13 07:55:33;;;;;;;0.93;0.80;;;18.70;99.90;;;;;;5117358;28;20538;-90
2021/09/13 07:58:00;;;;;;;1.53;0.83;;;18.80;99.90;;;;;;5115938;28;20520;-90
2021/09/13 08:00:27;;;;;;;1.03;1.03;;;19.00;99.90;;;;;;5112401;28;20451;-91
2021/09/13 08:02:55;;;;;;;3.23;1.10;;;19.30;99.90;;;;;;5112725;28;20451;-90
2021/09/13 08:05:22;;;;;;;1.10;1.00;;;19.40;99.90;;;;;;5112528;28;20832;-90
2021/09/13 08:07:49;;;;;;;0.83;0.80;;;19.50;99.90;;;;;;5112587;28;20442;-90
2021/09/13 08:10:18;;;;;;;1.50;1.00;;;19.50;99.90;;;;;;5112559;28;20467;-90
2021/09/13 08:12:45;;;;;;;1.47;0.93;;;19.60;99.90;;;;;;5111723;28;20447;-86
2021/09/13 08:15:12;;;;;;;4.00;1.23;;;19.60;99.90;;;;;;5111009;28;20447;-86
2021/09/13 08:17:39;;;;;;;0.97;0.80;;;19.90;99.90;;;;;;5110828;28;20933;-86
2021/09/13 08:20:09;;;;;;;1.47;0.90;;;20.10;99.90;;;;;;5111087;28;20557;-87
2021/09/13 08:22:35;;;;;;;1.40;0.70;;;20.10;99.90;;;;;;5111082;28;20431;-87
2021/09/13 08:25:02;;;;;;;2.23;1.07;;;20.10;99.90;;;;;;5110976;28;20489;-87
2021/09/13 08:27:29;;;;;;;0.80;0.70;;;20.20;99.90;;;;;;5111241;28;20437;-87
2021/09/13 08:29:56;;;;;;;0.60;0.60;;;20.40;99.90;;;;;;5111468;28;20973;-87
2021/09/13 08:32:22;;;;;;;1.60;0.73;;;20.50;99.90;;;;;;5110811;28;20783;-79
2021/09/13 08:34:51;;;;;;;0.73;0.73;;;20.70;99.90;;;;;;5111116;28;20426;-80
2021/09/13 09:09:18;;;;;;;0.77;0.77;;;22.70;99.90;;;;;;5017559;28;20568;-89
2021/09/13 09:12:29;;;;;;;;;;;;;;;;;;;;;
2021/09/13 09:15:17;;;;;;;1.77;0.80;;;23.00;99.90;;;;;;5017127;28;20208;-89
2021/09/13 09:18:17;;;;;;;0.90;0.83;;;23.30;99.90;;;;;;5018755;28;20195;-90
2021/09/13 10:14:17;;;;;;;0.90;0.63;;;24.70;99.90;;;;;;5114160;28;20232;-92
2021/09/13 10:16:46;;;;;;;1.02;0.93;;;24.80;99.90;;;;;;5116663;28;20632;-90
2021/09/13 10:19:13;;;;;;;1.25;1.02;;;24.70;99.90;;;;;;5115770;28;20679;-91
2021/09/13 10:21:41;;;;;;;1.00;0.90;;;24.60;99.90;;;;;;5116792;28;20181;-90
2021/09/13 10:31:10;;;;;;;0.75;0.75;;;25.10;99.90;;;;;;5033540;28;20253;-90
2021/09/13 10:33:37;;;;;;;0.85;0.77;;;25.10;99.90;;;;;;5057638;28;20322;-91
2021/09/13 10:36:05;;;;;;;0.70;0.70;;;24.90;99.90;;;;;;5116695;28;20284;-93
2021/09/13 10:39:18;;;;;;;1.15;0.80;;;24.40;99.90;;;;;;5116607;28;20316;-93
2021/09/13 10:45:32;;;;;;;1.20;0.85;;;24.50;99.90;;;;;;5031004;28;20241;-91
2021/09/13 10:48:15;;;;;;;0.75;0.75;;;24.60;99.90;;;;;;5115379;28;20207;-90
2021/09/13 10:57:06;;;;;;;0.85;0.85;;;26.90;99.90;;;;;;5102433;28;20201;-91
2021/09/13 11:10:12;;;;;;;0.80;0.63;;;24.90;99.90;;;;;;5109540;28;20715;-89
2021/09/13 11:12:39;;;;;;;0.73;0.73;;;24.90;99.90;;;;;;5110232;28;20589;-88
2021/09/13 11:18:42;;;;;;;1.27;0.85;;;24.90;99.90;;;;;;5042794;28;20228;-89
2021/09/13 11:24:34;;;;;;;1.35;0.85;;;24.70;99.90;;;;;;5114432;28;20204;-87
2021/09/13 11:27:18;;;;;;;1.25;0.60;;;24.80;99.90;;;;;;5114609;28;20628;-89
2021/09/13 11:29:48;;;;;;;0.85;0.70;;;24.70;99.90;;;;;;5112061;28;20231;-87
2021/09/13 11:32:38;;;;;;;2.05;1.33;;;24.80;99.90;;;;;;5115045;28;20205;-90
2021/09/13 11:35:16;;;;;;;0.80;0.80;;;25.00;99.90;;;;;;5033018;28;20204;-89
2021/09/13 11:37:45;;;;;;;1.20;0.73;;;25.00;99.90;;;;;;5114723;28;20197;-86
2021/09/13 11:40:33;;;;;;;0.90;0.80;;;24.90;99.90;;;;;;5114387;28;20595;-88
2021/09/13 11:43:09;;;;;;;0.73;0.60;;;25.00;99.90;;;;;;5114049;28;20209;-87
2021/09/13 11:45:36;;;;;;;2.45;0.70;;;24.90;99.90;;;;;;5114104;28;20212;-87
2021/09/13 11:48:09;;;;;;;0.77;0.70;;;25.00;99.90;;;;;;5113785;28;20185;-87
2021/09/13 12:00:20;;;;;;;1.17;0.90;;;24.70;99.90;;;;;;5070024;28;20235;-89
2021/09/13 12:02:51;;;;;;;0.60;0.60;;;24.60;99.90;;;;;;5115676;28;20192;-89
2021/09/13 12:05:20;;;;;;;0.47;0.40;;;24.40;99.90;;;;;;5116013;28;20216;-89
2021/09/13 12:07:49;;;;;;;1.00;0.90;;;24.30;99.90;;;;;;5114544;28;20256;-88
2021/09/13 12:10:19;;;;;;;1.95;0.90;;;24.30;99.90;;;;;;5113693;28;20216;-88
2021/09/13 12:12:48;;;;;;;0.70;0.50;;;24.20;99.90;;;;;;5114045;28;20725;-88
2021/09/13 12:15:28;;;;;;;0.68;0.68;;;24.20;99.90;;;;;;5114807;28;20205;-90
2021/09/13 12:18:23;;;;;;;0.80;0.80;;;24.20;99.90;;;;;;5114287;28;20246;-89
2021/09/13 12:20:53;;;;;;;0.73;0.73;;;24.10;99.90;;;;;;5114835;28;20287;-89
2021/09/13 12:23:23;;;;;;;0.88;0.70;;;24.00;99.90;;;;;;5114728;28;20243;-88
2021/09/13 12:26:12;;;;;;;0.80;0.70;;;24.00;99.90;;;;;;5114467;28;20621;-90
2021/09/13 12:29:11;;;;;;;1.27;1.17;;;23.90;99.90;;;;;;5115145;28;20224;-90
2021/09/13 12:32:15;;;;;;;1.25;0.60;;;23.80;99.90;;;;;;5115773;28;20212;-88
2021/09/13 12:35:19;;;;;;;1.50;1.00;;;23.70;99.90;;;;;;5111161;28;20631;-88
2021/09/13 12:41:03;;;;;;;0.73;0.57;;;23.70;99.90;;;;;;5118683;28;20193;-90
2021/09/13 12:44:08;;;;;;;0.80;0.67;;;23.50;99.90;;;;;;5119976;28;20214;-90
2021/09/13 12:46:48;;;;;;;0.80;0.70;;;23.50;99.90;;;;;;5118388;28;20224;-89
2021/09/13 12:52:05;;;;;;;1.58;0.90;;;23.40;99.90;;;;;;5097254;28;20189;-91
2021/09/13 12:54:42;;;;;;;0.60;0.60;;;23.30;99.90;;;;;;5110148;28;20280;-90
2021/09/13 13:00:10;;;;;;;0.90;0.70;;;23.20;99.90;;;;;;5115466;28;20258;-88
2021/09/13 13:02:37;;;;;;;1.70;1.13;;;23.20;99.90;;;;;;5115933;28;20260;-88
2021/09/13 13:05:05;;;;;;;0.83;0.83;;;23.20;99.90;;;;;;5101204;28;20228;-89
2021/09/13 13:07:31;;;;;;;1.65;0.80;;;23.30;99.90;;;;;;5100293;28;20189;-87
2021/09/13 13:10:03;;;;;;;0.60;0.60;;;23.30;99.90;;;;;;5117116;28;20232;-92
2021/09/13 13:12:30;;;;;;;0.67;0.67;;;23.30;99.90;;;;;;5099808;28;20225;-90
2021/09/13 13:14:59;;;;;;;0.60;0.60;;;23.40;99.90;;;;;;5096764;28;20202;-89
2021/09/13 13:17:32;;;;;;;1.13;1.00;;;23.50;99.90;;;;;;5096870;28;20201;-87
2021/09/13 13:19:59;;;;;;;0.97;0.97;;;23.60;99.90;;;;;;5096623;28;20220;-89
2021/09/13 13:22:26;;;;;;;1.07;1.00;;;23.50;99.90;;;;;;5097206;28;20198;-89
2021/09/13 13:24:52;;;;;;;0.90;0.90;;;23.40;99.90;;;;;;5115171;28;20216;-88
2021/09/13 13:27:21;;;;;;;1.27;0.70;;;23.30;99.90;;;;;;5116967;28;20197;-88
2021/09/13 13:29:56;;;;;;;1.13;0.60;;;23.40;99.90;;;;;;5117124;28;20228;-91
2021/09/13 13:32:23;;;;;;;0.63;0.63;;;23.50;99.90;;;;;;5116854;28;20208;-88
2021/09/13 13:35:04;;;;;;;0.93;0.80;;;23.60;99.90;;;;;;5115738;28;20561;-94
2021/09/13 13:37:30;;;;;;;0.73;0.73;;;23.50;99.90;;;;;;5116244;28;20573;-81
2021/09/13 13:39:57;;;;;;;0.93;0.60;;;23.50;99.90;;;;;;5100239;28;20228;-90
2021/09/13 13:42:25;;;;;;;0.50;0.50;;;23.70;99.90;;;;;;5096262;28;20198;-90
2021/09/13 13:44:55;;;;;;;0.67;0.67;;;23.70;99.90;;;;;;5096363;28;20565;-91
2021/09/13 13:47:45;;;;;;;0.85;0.60;;;23.60;99.90;;;;;;5096051;28;20656;-93
2021/09/13 14:00:42;;;;;;;0.70;0.70;;;23.20;99.90;;;;;;5014632;28;20231;-93
2021/09/13 14:03:18;;;;;;;0.63;0.63;;;23.20;99.90;;;;;;5038566;28;20270;-91
2021/09/13 14:05:46;;;;;;;1.03;0.63;;;23.20;99.90;;;;;;5053874;28;20226;-87
2021/09/13 14:08:15;;;;;;;0.57;0.50;;;23.20;99.90;;;;;;5053988;28;20211;-90
2021/09/13 14:10:54;;;;;;;0.50;0.50;;;23.30;99.90;;;;;;5070601;28;20207;-91
2021/09/13 14:13:21;;;;;;;1.10;0.50;;;23.30;99.90;;;;;;5077613;28;20707;-90
2021/09/13 14:15:50;;;;;;;0.60;0.50;;;23.20;99.90;;;;;;5095893;28;20203;-90
2021/09/13 14:18:16;;;;;;;0.70;0.60;;;23.20;99.90;;;;;;5096008;28;20616;-90
2021/09/13 14:20:43;;;;;;;0.80;0.80;;;23.10;99.90;;;;;;5095630;28;20228;-92
2021/09/13 14:23:10;;;;;;;0.70;0.63;;;23.30;99.90;;;;;;5095647;28;20262;-89
2021/09/13 14:25:37;;;;;;;0.70;0.70;;;23.40;99.90;;;;;;5095540;28;20231;-90
2021/09/13 14:28:04;;;;;;;1.10;0.80;;;23.40;99.90;;;;;;5095632;28;20194;-90
2021/09/13 14:30:31;;;;;;;1.17;1.17;;;23.40;99.90;;;;;;5095366;28;20193;-90
2021/09/13 14:32:59;;;;;;;0.80;0.77;;;23.40;99.90;;;;;;5095494;28;20664;-91
2021/09/13 14:35:26;;;;;;;1.02;0.80;;;23.30;99.90;;;;;;5095284;28;20205;-90
2021/09/13 14:37:53;;;;;;;1.10;0.77;;;23.20;99.90;;;;;;5095546;28;20194;-90
2021/09/13 14:40:20;;;;;;;1.57;0.70;;;23.20;99.90;;;;;;5095089;28;20209;-91
2021/09/13 14:42:47;;;;;;;0.70;0.67;;;23.10;99.90;;;;;;5095252;28;20205;-90
2021/09/13 14:45:14;;;;;;;0.57;0.53;;;23.10;99.90;;;;;;5095323;28;20197;-91
2021/09/13 14:47:40;;;;;;;1.17;0.70;;;23.10;99.90;;;;;;5095119;28;20204;-89
2021/09/13 14:50:10;;;;;;;0.53;0.53;;;23.10;99.90;;;;;;5095188;28;20225;-90
2021/09/13 14:52:40;;;;;;;0.60;0.60;;;23.10;99.90;;;;;;5095896;28;20212;-88
2021/09/13 14:55:08;;;;;;;1.10;0.60;;;23.20;99.90;;;;;;5094886;28;20208;-89
2021/09/13 14:57:34;;;;;;;0.70;0.50;;;23.30;99.90;;;;;;5107990;28;20249;-90
2021/09/13 15:00:05;;;;;;;1.40;0.68;;;23.30;99.90;;;;;;5104654;28;20221;-90
2021/09/13 15:02:32;;;;;;;0.80;0.80;;;23.20;99.90;;;;;;5095134;28;20193;-90
2021/09/13 15:04:58;;;;;;;0.70;0.63;;;23.10;99.90;;;;;;5094986;28;20644;-89
2021/09/13 15:07:27;;;;;;;0.80;0.80;;;23.10;99.90;;;;;;5112688;28;20216;-89
2021/09/13 15:09:54;;;;;;;0.70;0.70;;;23.30;99.90;;;;;;5114566;28;21006;-91
2021/09/13 15:12:21;;;;;;;1.10;0.80;;;23.30;99.90;;;;;;5106892;28;20309;-89
2021/09/13 15:14:47;;;;;;;0.83;0.83;;;23.40;99.90;;;;;;5120406;28;20205;-86
2021/09/13 15:17:14;;;;;;;1.57;0.80;;;23.50;99.90;;;;;;5103047;28;20440;-87
2021/09/13 15:19:41;;;;;;;0.90;0.70;;;23.60;99.90;;;;;;5098000;28;20225;-87
2021/09/13 15:22:08;;;;;;;1.40;0.80;;;23.60;99.90;;;;;;5098980;28;20522;-87
2021/09/13 15:24:36;;;;;;;3.03;1.07;;;23.60;99.90;;;;;;5096980;28;20182;-87
2021/09/13 15:27:05;;;;;;;1.33;0.67;;;23.60;99.90;;;;;;5095296;28;20470;-88
2021/09/13 15:29:32;;;;;;;0.80;0.80;;;23.60;99.90;;;;;;5094282;28;20229;-87
2021/09/13 15:31:59;;;;;;;0.90;0.70;;;23.50;99.90;;;;;;5095661;28;20803;-88